Tetien Trader — SYDU — position and weather

sailwx.info

Track history (hours):
 
Tides and Currents Weather Stations Pressure Air Temp Water Temp Dewpoint Dewpoint Depression Visibility Wind Speed Wind Dir Waves Ship Positions

Tetien Trader

Last reported at 2014-Sep-08 20:34 UTC. Time now 2014-Sep-17 23:34 UTC.
Position N 01°15' E 104°03'.
Warning: this ship's position is 9 days out of date.

Length 225 m; draft 13.4 m.

Type: Cargo ship. MMSI: 239875000.

Date/timePositionNaut miles runAvg speedWind from/ knotsBaromVisibWave heightAir tempDewpointWater temp
2014-Sep-08 20:34N 01°15' E 104°03'3 3.0
2014-Sep-08 19:33N 01°17' E 104°01'0 0.0
2014-Sep-08 18:33N 01°17' E 104°01'0 0.1
2014-Sep-08 17:33N 01°17' E 104°01'0 0.1
2014-Sep-08 16:33N 01°17' E 104°01'0 0.2
2014-Sep-08 15:33N 01°17' E 104°01'0 0.1
2014-Sep-08 14:12N 01°17' E 104°00'0 0.0
2014-Sep-08 12:24N 01°17' E 104°00'0 0.0
2014-Sep-08 11:18N 01°17' E 104°00'0 0.0
2014-Sep-08 10:18N 01°17' E 104°00'0 0.0
2014-Sep-08 08:30N 01°17' E 104°01'0 0.1
2014-Sep-08 07:24N 01°17' E 104°01'0 0.1
2014-Sep-08 06:21N 01°17' E 104°01'1 1.0
2014-Sep-08 05:33N 01°17' E 103°60'3 2.7
2014-Sep-08 04:33N 01°16' E 103°57'6 5.7
2014-Sep-08 03:29N 01°16' E 104°03'7 7.4
2014-Sep-08 02:32N 01°17' E 104°10'  
Track history (hours):
 
Tides and Currents Weather Stations Pressure Air Temp Water Temp Dewpoint Dewpoint Depression Visibility Wind Speed Wind Dir Waves Ship Positions

Tetien Trader

Last reported at 2014-Sep-08 20:34 UTC. Time now 2014-Sep-17 23:34 UTC.
Position N 01°15' E 104°03'.
Warning: this ship's position is 9 days out of date.

Length 225 m; draft 13.4 m.

Type: Cargo ship. MMSI: 239875000.

Date/timePositionNaut miles runAvg speedWind from/ knotsBaromVisibWave heightAir tempDewpointWater temp
2014-Sep-08 20:34N 01°15' E 104°03'3 3.0
2014-Sep-08 19:33N 01°17' E 104°01'0 0.0
2014-Sep-08 18:33N 01°17' E 104°01'0 0.1
2014-Sep-08 17:33N 01°17' E 104°01'0 0.1
2014-Sep-08 16:33N 01°17' E 104°01'0 0.2
2014-Sep-08 15:33N 01°17' E 104°01'0 0.1
2014-Sep-08 14:12N 01°17' E 104°00'0 0.0
2014-Sep-08 12:24N 01°17' E 104°00'0 0.0
2014-Sep-08 11:18N 01°17' E 104°00'0 0.0
2014-Sep-08 10:18N 01°17' E 104°00'0 0.0
2014-Sep-08 08:30N 01°17' E 104°01'0 0.1
2014-Sep-08 07:24N 01°17' E 104°01'0 0.1
2014-Sep-08 06:21N 01°17' E 104°01'1 1.0
2014-Sep-08 05:33N 01°17' E 103°60'3 2.7
2014-Sep-08 04:33N 01°16' E 103°57'6 5.7
2014-Sep-08 03:29N 01°16' E 104°03'7 7.4
2014-Sep-08 02:32N 01°17' E 104°10'  

Dump ship's entire track history